Terminal Aerodrome Forecast
Issued by NWS

Home | Current Version | Previous Version | Text Only | Print | Product List | Glossary On
Versions: 1 2 3 4 5 6 7 8 9 10 11 12 13 14 15 16 17 18 19 20 21 22 23 24 25 26 27 28 29 30 31 32 33 34 35 36 37 38 39 40 41 42
000
FTUS45 KBOU 190303 AAA
TAFBJC
TAF AMD
KBJC 190303Z 1903/1924 VRB03KT P6SM FEW090 SCT200
     FM190500 26007KT P6SM FEW110 SCT200
     FM191600 10007KT P6SM SCT070 BKN200
     FM192100 08007KT P6SM SCT070 BKN200 PROB30 1921/1924 VRB20G30KT
      -TSRA BKN070CB=

USA.gov is the U.S. government's official web portal to all federal, state and local government web resources and services.